Tiempo atmosférico en la estación meteorológica de Arucas, Las Palmas (86 m.)



Fecha
DESCASC
Temp. máxima en grados centígrados (hora)
DESCASC
Temp. mínima en grados centígrados (hora)
DESCASC
Temp. media en grados centígrados
DESCASC
Racha de viento máxima en m/sg (hora)
DESCASC
Velocidad máxima media en intervalos de 10 minutos(hora)
DESCASC
Precipitaciones diarias en mm
DESCASC
Precipitaciones de 00:00 a 06:00 en mm
DESCASC
Precipitaciones de 06:00 a 12:00 en mm
DESCASC
Precipitaciones de 12:00 a 18:00 en mm
DESCASC
Precipitaciones de 18:00 a 24:00 en mm
DESCASC
11-12-2019 20.7 (12:30) 17.4 (07:40) 19.1 7.22 (17:50) 3.61 (13:30) 0 0 0 0 0
10-12-2019 20.7 (12:40) 16 (06:50) 18.4 7.22 (23:20) 3.89 (23:20) 0 0 0 0 0
09-12-2019 20.3 (13:30) 16.4 (23:50) 18.3 6.94 (01:30) 3.89 (00:50) 0 0 0 0 0
08-12-2019 20.6 (12:30) 17.8 (00:00) 19.2 8.89 (03:30) 4.44 (00:40) 0 0 0 0 0
07-12-2019 20.1 (13:30) 16.1 (00:00) 18.1 10 (07:50) 5 (07:50) 0.2 0.2 0 0 0
06-12-2019 20 (13:40) 15.8 (00:00) 17.9 11.39 (17:00) 6.39 (19:20) 8.8 6.6 1.8 0.4 0
05-12-2019 19.3 (11:30) 15 (00:00) 17.1 13.33 (01:50) 7.22 (06:40) 23.8 17.6 0.2 3 3
04-12-2019 21.7 (14:40) 16.5 (00:00) 19.1 10.28 (12:30) 5.83 (12:50) 0 0 0 0 0
03-12-2019 21.4 (13:10) 17 (00:00) 19.2 11.11 (05:20) 5.28 (09:40) 0.8 0.8 0 0 0
02-12-2019 21.8 (13:50) 17.2 (00:00) 19.5 9.72 (20:00) 5 (21:20) 0.6 0 0.6 0 0
01-12-2019 22 (13:30) 16.7 (00:00) 19.4 5.83 (16:40) 3.61 (16:40) 0 0 0 0 0
30-11-2019 23.6 (13:00) 18.5 (00:00) 21.1 7.5 (11:40) 5.28 (11:40) 0 0 0 0 0
29-11-2019 23.1 (13:20) 17.8 (00:00) 20.4 8.89 (14:00) 5.56 (14:40) 0 0 0 0 0
28-11-2019 21.6 (12:00) 18.5 (00:00) 20.1 5.56 (12:00) 3.61 (11:50) 0 0 0 0 0
27-11-2019 21.6 (15:40) 19.1 (00:00) 20.4 5.28 (12:40) 3.06 (12:40) 0 0 0 0 0
26-11-2019 21.9 (14:10) 18.4 (00:00) 20.1 4.72 (15:20) 2.78 (15:20) 0 0 0 0 0
25-11-2019 21.7 (12:00) 17.8 (00:00) 19.8 5.83 (01:00) 3.33 (11:10) 0 0 0 0 0
24-11-2019 22.3 (13:10) 18.5 (00:00) 20.4 6.11 (11:40) 3.06 (22:10) 0.4 0.2 0.2 0 0
23-11-2019 22.7 (12:00) 18.6 (00:00) 20.7 7.78 (12:20) 4.72 (12:20) 1.2 0.2 0.8 0.2 0
22-11-2019 22.9 (14:40) 15.7 (00:00) 19.3 6.67 (06:30) 4.17 (06:20) 0.2 0 0.2 0 0
21-11-2019 21.4 (15:50) 15.1 (00:00) 18.3 3.61 (17:50) 2.22 (17:30) 0 0 0 0 0
20-11-2019 23.1 (14:00) 16.8 (00:00) 19.9 7.78 (16:30) 3.89 (16:10) 0 0 0 0 0
19-11-2019 21.4 (15:00) 16.5 (00:00) 18.9 8.61 (11:50) 4.72 (12:00) 0.8 0.2 0 0.6 0
18-11-2019 21.2 (14:20) 16.5 (00:00) 18.9 6.11 (00:10) 3.06 (13:40) 0 0 0 0 0
17-11-2019 20.6 (12:20) 17.3 (00:00) 18.9 8.61 (09:30) 5 (11:00) 0.2 0 0 0.2 0
16-11-2019 21.8 (12:50) 16.9 (00:00) 19.3 11.94 (06:50) 6.67 (08:30) 0 0 0 0 0
15-11-2019 20.5 (14:10) 17.6 (00:00) 19.1 10.83 (21:00) 5 (08:20) 0.4 0 0.4 0 0
14-11-2019 22.3 (11:00) 18.8 (00:00) 20.5 9.17 (23:20) 4.17 (22:30) 0 0 0 0 0
13-11-2019 22.6 (13:20) 19 (00:00) 20.8 7.78 (21:40) 4.17 (19:00) 0 0 0 0 0
12-11-2019 22.1 (14:10) 19.2 (00:00) 20.7 11.39 (06:00) 5.28 (00:10) 1.4 0 0.8 0.4 0.2

Gráficas

Temp. máximas Temp. mínimas Temp. medias Precipitaciones Rachas de viento máximas Velocidades máximas media en intervalos de 10 minutos

Datos horarios

Fecha y hora oficial Temperatura (ºC) Velocidad del viento (km/h) Dirección del viento Racha (km/h) Dirección de racha Precipitación (mm) Presión (hPa) Tendencia (hPa) Humedad (%)
2019-12-11 23:00:00 18 9 Este 19 Nordeste 0 -- -- 74
2019-12-11 22:00:00 18.1 8 Nordeste 15 Este 0 -- -- 72
2019-12-11 21:00:00 18 8 Nordeste 20 Nordeste 0 -- -- 72
2019-12-11 20:00:00 18.1 9 Nordeste 22 Nordeste 0 -- -- 73
2019-12-11 19:00:00 18.3 10 Nordeste 24 Nordeste 0 -- -- 71
2019-12-11 18:00:00 18.4 11 Nordeste 26 Nordeste 0 -- -- 73
2019-12-11 17:00:00 19 10 Nordeste 20 Nordeste 0 -- -- 76
2019-12-11 16:00:00 19.3 10 Nordeste 22 Este 0 -- -- 76
2019-12-11 15:00:00 19.9 10 Nordeste 23 Nordeste 0 -- -- 73
2019-12-11 14:00:00 19.6 10 Nordeste 23 Nordeste 0 -- -- 76
2019-12-11 13:00:00 19.8 10 Nordeste 21 Nordeste 0 -- -- 75
2019-12-11 12:00:00 20.6 10 Nordeste 23 Nordeste 0 -- -- 70
2019-12-11 11:00:00 19.3 11 Este 22 Nordeste 0 -- -- 77
2019-12-11 10:00:00 19.9 9 Este 17 Este 0 -- -- 76
2019-12-11 09:00:00 18.8 11 Este 21 Este 0 -- -- 78
2019-12-11 08:00:00 17.6 9 Sudeste 17 Este 0 -- -- 85
2019-12-11 07:00:00 17.7 9 Sudeste 15 Este 0 -- -- 83
2019-12-11 06:00:00 17.7 9 Este 19 Este 0 -- -- 82
2019-12-11 05:00:00 17.7 9 Este 19 Este 0 -- -- 83
2019-12-11 04:00:00 17.9 8 Este 16 Este 0 -- -- 84
2019-12-11 03:00:00 18.1 9 Sudeste 20 Este 0 -- -- 81
2019-12-11 02:00:00 18.5 10 Este 21 Este 0 -- -- 81
2019-12-11 01:00:00 18.8 10 Este 18 Este 0 -- -- 79
2019-12-11 00:00:00 18.8 9 Este 26 Este 0 -- -- 79
2019-12-10 23:00:00 18.9 7 Este 19 Este 0 -- -- 80
2019-12-10 22:00:00 19 8 Este 19 Nordeste 0 -- -- 83
2019-12-10 21:00:00 18.9 9 Este 17 Este 0 -- -- 84
2019-12-10 20:00:00 18.8 10 Nordeste 21 Nordeste 0 -- -- 82
2019-12-10 19:00:00 18.8 5 Nordeste 12 Nordeste 0 -- -- 82
2019-12-10 18:00:00 19.1 5 Nordeste 13 Este 0 -- -- 80
2019-12-10 17:00:00 19.4 7 Nordeste 16 Nordeste 0 -- -- 78
2019-12-10 16:00:00 20.5 7 Nordeste 14 Nordeste 0 -- -- 75
2019-12-10 15:00:00 20.4 7 Nordeste 13 Este 0 -- -- 76
2019-12-10 14:00:00 20.3 9 Nordeste 14 Este 0 -- -- 76
2019-12-10 13:00:00 20.6 10 Nordeste 17 Este 0 -- -- 71
2019-12-10 12:00:00 20.2 10 Nordeste 16 Nordeste 0 -- -- 71
2019-12-10 11:00:00 19.4 10 Nordeste 16 Nordeste 0 -- -- 73
2019-12-10 10:00:00 18.6 5 Sudeste 13 Sur 0 -- -- 74
2019-12-10 09:00:00 17.7 6 Sudeste 13 Sudeste 0 -- -- 76
2019-12-10 08:00:00 16.5 8 Sur 13 Sudeste 0 -- -- 79
2019-12-10 07:00:00 16.2 8 Sur 13 Sur 0 -- -- 80
2019-12-10 06:00:00 16.6 7 Sur 13 Sur 0 -- -- 76
2019-12-10 05:00:00 16.9 6 Sudeste 13 Este 0 -- -- 77
2019-12-10 04:00:00 16.6 5 Sudeste 11 Sudeste 0 -- -- 79
2019-12-10 03:00:00 16.8 5 Sudeste 14 Este 0 -- -- 78
2019-12-10 02:00:00 16.7 5 Sudeste 14 Nordeste 0 -- -- 79
2019-12-10 01:00:00 17.1 5 Sudeste 10 Sudeste 0 -- -- 79
2019-12-10 00:00:00 16.4 5 Sudeste 12 Este 0 -- -- 82
2019-12-09 23:00:00 17.3 5 Este 12 Este 0 -- -- 80
2019-12-09 22:00:00 17.8 7 Este 18 Este 0 -- -- 79
2019-12-09 21:00:00 18 8 Nordeste 15 Nordeste 0 -- -- 78
2019-12-09 20:00:00 18 5 Nordeste 16 Norte 0 -- -- 78
2019-12-09 19:00:00 18.2 6 Nordeste 16 Nordeste 0 -- -- 78
2019-12-09 18:00:00 18.4 3 Nordeste 15 Nordeste 0 -- -- 77
2019-12-09 17:00:00 19.1 7 Nordeste 15 Este 0 -- -- 76
2019-12-09 16:00:00 19.9 9 Nordeste 20 Nordeste 0 -- -- 73
2019-12-09 15:00:00 19.5 11 Nordeste 20 Este 0 -- -- 74
2019-12-09 14:00:00 19.3 10 Nordeste 19 Nordeste 0 -- -- 75
2019-12-09 13:00:00 20 11 Nordeste 19 Nordeste 0 -- -- 75
2019-12-09 12:00:00 19.6 10 Nordeste 19 Nordeste 0 -- -- 74
2019-12-09 11:00:00 19 9 Este 20 Este 0 -- -- 75
2019-12-09 10:00:00 19 12 Nordeste 21 Este 0 -- -- 75
2019-12-09 09:00:00 18.3 10 Este 21 Este 0 -- -- 77
2019-12-09 08:00:00 17.9 10 Este 22 Este 0 -- -- 78
2019-12-09 07:00:00 18 10 Nordeste 24 Este 0 -- -- 78
2019-12-09 06:00:00 17.9 10 Nordeste 24 Este 0 -- -- 78
2019-12-09 05:00:00 18 12 Nordeste 24 Nordeste 0 -- -- 77
2019-12-09 04:00:00 17.7 10 Este 24 Este 0 -- -- 75
2019-12-09 03:00:00 17.7 12 Este 23 Nordeste 0 -- -- 75
2019-12-09 02:00:00 17.9 11 Este 25 Este 0 -- -- 76
2019-12-09 01:00:00 18.1 12 Nordeste 24 Este 0 -- -- 77
2019-12-09 00:00:00 17.9 10 Nordeste 22 Nordeste 0 -- -- 77
2019-12-08 23:00:00 18 9 Nordeste 25 Nordeste 0 -- -- 77
2019-12-08 22:00:00 18.1 12 Nordeste 26 Nordeste 0 -- -- 75
2019-12-08 21:00:00 18.2 13 Nordeste 26 Nordeste 0 -- -- 75
2019-12-08 20:00:00 18.2 13 Nordeste 23 Nordeste 0 -- -- 76
2019-12-08 19:00:00 18.1 9 Nordeste 21 Este 0 -- -- 75
2019-12-08 18:00:00 18.3 11 Nordeste 21 Norte 0 -- -- 72
2019-12-08 17:00:00 18.8 12 Nordeste 23 Nordeste 0 -- -- 71
2019-12-08 16:00:00 18.9 13 Nordeste 27 Nordeste 0 -- -- 73
2019-12-08 15:00:00 19.7 11 Nordeste 23 Nordeste 0 -- -- 73
2019-12-08 14:00:00 19.6 13 Nordeste 28 Norte 0 -- -- 69
2019-12-08 13:00:00 19.8 13 Nordeste 24 Nordeste 0 -- -- 70
2019-12-08 12:00:00 20.1 13 Nordeste 22 Este 0 -- -- 68
2019-12-08 11:00:00 19 12 Nordeste 23 Nordeste 0 -- -- 73
2019-12-08 10:00:00 19.2 11 Nordeste 20 Nordeste 0 -- -- 73
2019-12-08 09:00:00 18.3 12 Nordeste 23 Nordeste 0 -- -- 70
2019-12-08 08:00:00 18 9 Nordeste 23 Nordeste 0 -- -- 75
2019-12-08 07:00:00 17.8 12 Nordeste 24 Nordeste 0 -- -- 74
2019-12-08 06:00:00 17.8 9 Nordeste 25 Nordeste 0 -- -- 75
2019-12-08 05:00:00 18 13 Nordeste 25 Nordeste 0 -- -- 76
2019-12-08 04:00:00 18.1 15 Nordeste 32 Nordeste 0 -- -- 76
2019-12-08 03:00:00 18.2 15 Nordeste 29 Nordeste 0 -- -- 78
2019-12-08 02:00:00 18.3 14 Nordeste 30 Nordeste 0 -- -- 81
2019-12-08 01:00:00 18.4 12 Nordeste 29 Nordeste 0 -- -- 80
2019-12-08 00:00:00 18.6 14 Nordeste 31 Nordeste 0 -- -- 81
2019-12-07 23:00:00 18.7 13 Nordeste 26 Nordeste 0 -- -- 79
2019-12-07 22:00:00 18.7 15 Nordeste 32 Nordeste 0 -- -- 79
2019-12-07 21:00:00 18.6 13 Nordeste 26 Nordeste 0 -- -- 78
2019-12-07 20:00:00 18.7 15 Nordeste 28 Nordeste 0 -- -- 78
2019-12-07 19:00:00 18.7 12 Nordeste 27 Nordeste 0 -- -- 80
2019-12-07 18:00:00 18.7 11 Nordeste 24 Nordeste 0 -- -- 79
2019-12-07 17:00:00 18.9 12 Nordeste 26 Nordeste 0 -- -- 77
2019-12-07 16:00:00 19.2 13 Nordeste 29 Nordeste 0 -- -- 77
2019-12-07 15:00:00 20.1 9 Nordeste 24 Nordeste 0 -- -- 74
2019-12-07 14:00:00 19.9 13 Nordeste 24 Nordeste 0 -- -- 75
2019-12-07 13:00:00 20 11 Nordeste 22 Norte 0 -- -- 75
2019-12-07 12:00:00 20 12 Nordeste 26 Nordeste 0 -- -- 74
2019-12-07 11:00:00 19.6 9 Nordeste 21 Nordeste 0 -- -- 74
2019-12-07 10:00:00 18 6 Sudoeste 19 Oeste 0 -- -- 85
2019-12-07 09:00:00 17.2 7 Oeste 24 Norte 0 -- -- 84
2019-12-07 08:00:00 17.3 12 Norte 36 Norte 0 -- -- 85
2019-12-07 07:00:00 16.5 5 Noroeste 17 Norte 0 -- -- 83
2019-12-07 06:00:00 17.2 5 Oeste 14 Norte 0 -- -- 80
2019-12-07 05:00:00 17.6 7 Norte 14 Norte 0 -- -- 75
2019-12-07 04:00:00 17.5 5 Norte 17 Norte 0 -- -- 73
2019-12-07 03:00:00 17.7 9 Norte 20 Norte 0 -- -- 75
2019-12-07 02:00:00 17.9 8 Norte 17 Norte 0 -- -- 74
2019-12-07 01:00:00 17.7 8 Norte 19 Norte 0.2 -- -- 78
2019-12-07 00:00:00 17.8 10 Nordeste 22 Norte 0 -- -- 78
2019-12-06 23:00:00 17.8 9 Norte 29 Norte 0 -- -- 79
2019-12-06 22:00:00 18 7 Norte 26 Norte 0 -- -- 77
2019-12-06 21:00:00 18.1 15 Norte 33 Norte 0 -- -- 76
2019-12-06 20:00:00 18.3 14 Norte 36 Norte 0 -- -- 76
2019-12-06 19:00:00 18 14 Norte 29 Norte 0 -- -- 81
2019-12-06 18:00:00 18.6 11 Norte 33 Norte 0 -- -- 72
2019-12-06 17:00:00 18.7 15 Norte 41 Noroeste 0 -- -- 76
2019-12-06 16:00:00 18.6 9 Norte 35 Norte 0 -- -- 76
2019-12-06 15:00:00 18.2 14 Noroeste 29 Noroeste 0.4 -- -- 78
2019-12-06 14:00:00 19.8 11 Norte 24 Norte 0 -- -- 69
2019-12-06 13:00:00 19.4 9 Norte 29 Norte 0 -- -- 77
2019-12-06 12:00:00 19.6 12 Norte 27 Norte 0 -- -- 72
2019-12-06 11:00:00 18.5 16 Norte 32 Norte 0 -- -- 78
2019-12-06 10:00:00 18.5 18 Norte 35 Norte 0 -- -- 78
2019-12-06 09:00:00 18 10 Norte 30 Norte 1.8 -- -- 81
2019-12-06 08:00:00 17.6 8 Norte 25 Norte 0 -- -- 73
2019-12-06 07:00:00 17.7 15 Norte 32 Norte 0 -- -- 73
2019-12-06 06:00:00 17 11 Noroeste 35 Noroeste 0.4 -- -- 83
2019-12-06 05:00:00 16.9 8 Noroeste 28 Norte 0 -- -- 83
2019-12-06 04:00:00 15.8 11 Noroeste 37 Noroeste 3.6 -- -- 81
2019-12-06 03:00:00 16.5 10 Noroeste 33 Norte 0 -- -- 77
2019-12-06 02:00:00 17 9 Noroeste 25 Norte 0 -- -- 79
2019-12-06 01:00:00 15.9 8 Norte 40 Norte 2.6 -- -- 88
2019-12-06 00:00:00 16.2 8 Norte 35 Norte 2.2 -- -- 86
2019-12-05 23:00:00 17.4 16 Noroeste 32 Noroeste 0 -- -- 80
2019-12-05 22:00:00 17.1 10 Noroeste 25 Noroeste 0.2 -- -- 79
2019-12-05 21:00:00 16.1 13 Noroeste 35 Noroeste 0.4 -- -- 81
2019-12-05 20:00:00 17.5 17 Noroeste 32 Noroeste 0 -- -- 74
2019-12-05 19:00:00 17.5 15 Noroeste 36 Noroeste 0.2 -- -- 75
2019-12-05 18:00:00 18.1 22 Noroeste 41 Noroeste 0.2 -- -- 68
2019-12-05 17:00:00 17.8 19 Norte 43 Norte 0 -- -- 72
2019-12-05 16:00:00 18.6 22 Noroeste 37 Noroeste 0 -- -- 71
2019-12-05 15:00:00 18.4 22 Noroeste 37 Noroeste 0 -- -- 70
2019-12-05 14:00:00 17.4 21 Oeste 35 Noroeste 2 -- -- 83
2019-12-05 13:00:00 17.4 19 Noroeste 45 Noroeste 0.8 -- -- 83
2019-12-05 12:00:00 18 20 Noroeste 37 Noroeste 0.2 -- -- 79
2019-12-05 11:00:00 18.3 13 Norte 40 Noroeste 0 -- -- 75
2019-12-05 10:00:00 18.8 22 Noroeste 43 Noroeste 0 -- -- 71
2019-12-05 09:00:00 17.9 18 Noroeste 36 Noroeste 0 -- -- 71
2019-12-05 08:00:00 17.6 21 Noroeste 41 Noroeste 0 -- -- 67
2019-12-05 07:00:00 17.8 22 Noroeste 38 Noroeste 0 -- -- 65
2019-12-05 06:00:00 17.9 22 Noroeste 40 Noroeste 0 -- -- 71
2019-12-05 05:00:00 18 20 Noroeste 48 Noroeste 0 -- -- 73
2019-12-05 04:00:00 17.1 18 Noroeste 41 Noroeste 0.4 -- -- 77
2019-12-05 03:00:00 16 12 Noroeste 37 Oeste 9 -- -- 96
2019-12-05 02:00:00 16.6 12 Noroeste 48 Oeste 6 -- -- 96
2019-12-05 01:00:00 16.5 17 Noroeste 41 Oeste 2.2 -- -- 93
2019-12-05 00:00:00 19.1 15 Oeste 28 Oeste 0 -- -- 70
2019-12-04 23:00:00 19 14 Oeste 32 Oeste 0 -- -- 70
2019-12-04 22:00:00 18.9 10 Oeste 29 Oeste 0 -- -- 74
2019-12-04 21:00:00 18.9 18 Noroeste 35 Oeste 0 -- -- 73
2019-12-04 20:00:00 19.2 19 Noroeste 35 Noroeste 0 -- -- 71
2019-12-04 19:00:00 19.1 18 Noroeste 31 Noroeste 0 -- -- 70
2019-12-04 18:00:00 19.2 15 Noroeste 31 Noroeste 0 -- -- 74
2019-12-04 17:00:00 19.4 17 Noroeste 32 Noroeste 0 -- -- 72
2019-12-04 16:00:00 20.4 15 Noroeste 30 Oeste 0 -- -- 66
2019-12-04 15:00:00 20.8 17 Oeste 27 Oeste 0 -- -- 59
2019-12-04 14:00:00 21 16 Oeste 30 Oeste 0 -- -- 55
2019-12-04 13:00:00 20.4 20 Oeste 37 Noroeste 0 -- -- 65
2019-12-04 12:00:00 20.9 13 Noroeste 21 Noroeste 0 -- -- 62
2019-12-04 11:00:00 20.4 12 Noroeste 22 Noroeste 0 -- -- 61
2019-12-04 10:00:00 19.8 10 Noroeste 20 Oeste 0 -- -- 61
2019-12-04 09:00:00 18.5 9 Oeste 19 Oeste 0 -- -- 68
2019-12-04 08:00:00 17.2 8 Sudoeste 16 Sudoeste 0 -- -- 71
2019-12-04 07:00:00 17.2 10 Oeste 21 Sudoeste 0 -- -- 70
2019-12-04 06:00:00 17.2 10 Oeste 24 Noroeste 0 -- -- 73
2019-12-04 05:00:00 17.6 6 Noroeste 22 Noroeste 0 -- -- 76
2019-12-04 04:00:00 17.2 8 Sudoeste 13 Sudoeste 0 -- -- 72
2019-12-04 03:00:00 16.6 7 Oeste 13 Oeste 0 -- -- 74
2019-12-04 02:00:00 17 5 Oeste 14 Norte 0 -- -- 71
2019-12-04 01:00:00 18 4 Noroeste 16 Norte 0 -- -- 70
2019-12-04 00:00:00 18.1 5 Noroeste 22 Norte 0 -- -- 68
2019-12-03 23:00:00 18.5 6 Noroeste 19 Noroeste 0 -- -- 68
2019-12-03 22:00:00 18.6 5 Noroeste 18 Norte 0 -- -- 65
2019-12-03 21:00:00 18.6 6 Noroeste 17 Noroeste 0 -- -- 67
2019-12-03 20:00:00 18.3 8 Noroeste 17 Noroeste 0 -- -- 63
2019-12-03 19:00:00 18.6 10 Noroeste 19 Noroeste 0 -- -- 64
2019-12-03 18:00:00 18.8 7 Noroeste 17 Noroeste 0 -- -- 63
2019-12-03 17:00:00 19.4 8 Noroeste 17 Noroeste 0 -- -- 64
2019-12-03 16:00:00 19.8 7 Noroeste 21 Noroeste 0 -- -- 65
2019-12-03 15:00:00 20.2 11 Noroeste 24 Noroeste 0 -- -- 63
2019-12-03 14:00:00 20.4 10 Noroeste 26 Noroeste 0 -- -- 68
2019-12-03 13:00:00 21.3 9 Noroeste 24 Norte 0 -- -- 61
2019-12-03 12:00:00 19.3 17 Noroeste 34 Noroeste 0 -- -- 69
2019-12-03 11:00:00 20.3 12 Noroeste 28 Noroeste 0 -- -- 63
2019-12-03 10:00:00 19.9 14 Noroeste 35 Noroeste 0 -- -- 60
2019-12-03 09:00:00 18.8 12 Noroeste 35 Noroeste 0 -- -- 69
2019-12-03 08:00:00 18.7 10 Noroeste 28 Noroeste 0 -- -- 68
2019-12-03 07:00:00 18.6 15 Noroeste 33 Noroeste 0 -- -- 71
2019-12-03 06:00:00 17.9 12 Noroeste 40 Norte 0 -- -- 73
2019-12-03 05:00:00 18.4 15 Noroeste 31 Noroeste 0 -- -- 76
2019-12-03 04:00:00 18.3 17 Noroeste 34 Noroeste 0.8 -- -- 70
2019-12-03 03:00:00 18.5 15 Noroeste 27 Noroeste 0 -- -- 73
2019-12-03 02:00:00 18.3 13 Noroeste 27 Noroeste 0 -- -- 71
2019-12-03 01:00:00 18.1 11 Noroeste 28 Noroeste 0 -- -- 78
2019-12-03 00:00:00 17.2 12 Oeste 22 Oeste 0 -- -- 79
2019-12-02 23:00:00 17.9 13 Noroeste 29 Oeste 0 -- -- 81
2019-12-02 22:00:00 17.9 13 Noroeste 34 Norte 0 -- -- 82
2019-12-02 21:00:00 17.8 12 Noroeste 32 Norte 0 -- -- 81
2019-12-02 20:00:00 18.4 15 Noroeste 35 Norte 0 -- -- 83
2019-12-02 19:00:00 17.9 10 Noroeste 31 Norte 0 -- -- 85
2019-12-02 18:00:00 18.9 18 Noroeste 32 Noroeste 0 -- -- 78
2019-12-02 17:00:00 19.5 13 Noroeste 28 Noroeste 0 -- -- 72
2019-12-02 16:00:00 20.6 12 Noroeste 24 Noroeste 0 -- -- 69
2019-12-02 15:00:00 20.9 13 Noroeste 25 Noroeste 0 -- -- 65
2019-12-02 14:00:00 21.7 12 Noroeste 24 Noroeste 0 -- -- 62
2019-12-02 13:00:00 20.5 13 Noroeste 28 Norte 0 -- -- 68
2019-12-02 12:00:00 19.9 13 Noroeste 26 Noroeste 0 -- -- 73
2019-12-02 11:00:00 19.1 10 Noroeste 26 Oeste 0.2 -- -- 85
2019-12-02 10:00:00 18.1 9 Oeste 18 Oeste 0.2 -- -- 89
2019-12-02 09:00:00 17.8 13 Oeste 26 Noroeste 0.2 -- -- 89
2019-12-02 08:00:00 18.7 8 Noroeste 18 Norte 0 -- -- 80
2019-12-02 07:00:00 18.2 7 Oeste 20 Noroeste 0 -- -- 82
2019-12-02 06:00:00 18.6 8 Noroeste 21 Noroeste 0 -- -- 78
2019-12-02 05:00:00 19.2 7 Noroeste 21 Norte 0 -- -- 77
2019-12-02 04:00:00 19.3 7 Noroeste 18 Norte 0 -- -- 81
2019-12-02 03:00:00 18.1 7 Oeste 13 Sudoeste 0 -- -- 76
2019-12-02 02:00:00 17.9 8 Sudoeste 18 Sudoeste 0 -- -- 77
2019-12-02 01:00:00 17.6 5 Oeste 10 Norte 0 -- -- 82
2019-12-02 00:00:00 17.3 5 Norte 10 Norte 0 -- -- 83
2019-12-01 23:00:00 17.5 3 Sudeste 8 Sudeste 0 -- -- 81
2019-12-01 22:00:00 17.8 6 Sudeste 9 Sur 0 -- -- 78
2019-12-01 21:00:00 18 5 Sur 9 Este 0 -- -- 76
2019-12-01 20:00:00 19.3 6 Este 12 Este 0 -- -- 72
2019-12-01 19:00:00 19.4 5 Este 10 Nordeste 0 -- -- 75
2019-12-01 18:00:00 19.4 5 Nordeste 13 Nordeste 0 -- -- 74
2019-12-01 17:00:00 19.8 8 Nordeste 21 Norte 0 -- -- 74
2019-12-01 16:00:00 20.7 10 Nordeste 18 Nordeste 0 -- -- 74
2019-12-01 15:00:00 21.2 8 Nordeste 15 Este 0 -- -- 73
2019-12-01 14:00:00 21.6 9 Nordeste 15 Nordeste 0 -- -- 71
2019-12-01 13:00:00 21.5 7 Nordeste 16 Nordeste 0 -- -- 69
2019-12-01 12:00:00 20.9 8 Nordeste 15 Nordeste 0 -- -- 72
2019-12-01 11:00:00 20.7 9 Nordeste 15 Nordeste 0 -- -- 74
2019-12-01 10:00:00 19.8 8 Este 16 Nordeste 0 -- -- 75
2019-12-01 09:00:00 19.4 8 Este 14 Nordeste 0 -- -- 78
2019-12-01 08:00:00 18.7 4 Este 11 Este 0 -- -- 80
2019-12-01 07:00:00 18.6 6 Sudeste 11 Este 0 -- -- 81
2019-12-01 06:00:00 18.7 6 Este 12 Este 0 -- -- 83
2019-12-01 05:00:00 18.3 6 Sudeste 12 Sudeste 0 -- -- 82
2019-12-01 04:00:00 18.6 5 Sudeste 12 Sudeste 0 -- -- 83
2019-12-01 03:00:00 19.3 6 Este 14 Nordeste 0 -- -- 84
2019-12-01 02:00:00 19.4 7 Este 14 Este 0 -- -- 84
2019-12-01 01:00:00 19.5 7 Este 14 Nordeste 0 -- -- 87
2019-12-01 00:00:00 19.7 6 Nordeste 12 Nordeste 0 -- -- 89
2019-11-30 23:00:00 19.8 6 Nordeste 11 Nordeste 0 -- -- 90
2019-11-30 22:00:00 19.3 4 Sudeste 13 Sudeste 0 -- -- 89
2019-11-30 21:00:00 19.2 5 Sudeste 9 Sudeste 0 -- -- 91
2019-11-30 20:00:00 19.4 5 Sudeste 9 Este 0 -- -- 90
2019-11-30 19:00:00 19.9 7 Este 14 Este 0 -- -- 90
2019-11-30 18:00:00 20.4 9 Este 19 Nordeste 0 -- -- 88
2019-11-30 17:00:00 21.4 9 Este 20 Este 0 -- -- 85
2019-11-30 16:00:00 22.2 10 Nordeste 22 Nordeste 0 -- -- 82
2019-11-30 15:00:00 22.8 11 Nordeste 19 Este 0 -- -- 78
2019-11-30 14:00:00 23 10 Nordeste 22 Este 0 -- -- 75
2019-11-30 13:00:00 23.6 10 Este 26 Este 0 -- -- 71
2019-11-30 12:00:00 22.8 16 Este 27 Este 0 -- -- 77
2019-11-30 11:00:00 22.5 17 Este 26 Este 0 -- -- 77
2019-11-30 10:00:00 22.1 16 Este 25 Este 0 -- -- 74
2019-11-30 09:00:00 20.7 12 Sudeste 18 Sudeste 0 -- -- 79
2019-11-30 08:00:00 19 6 Sudeste 16 Sudeste 0 -- -- 78
2019-11-30 07:00:00 19 8 Sudeste 15 Sudeste 0 -- -- 84
2019-11-30 06:00:00 19 10 Sudeste 19 Sudeste 0 -- -- 83
2019-11-30 05:00:00 19 9 Sudeste 14 Sudeste 0 -- -- 85
2019-11-30 04:00:00 19.6 8 Sudeste 14 Sudeste 0 -- -- 75
2019-11-30 03:00:00 19.5 10 Sur 14 Sudeste 0 -- -- 59
2019-11-30 02:00:00 18.8 8 Sudeste 12 Sudeste 0 -- -- 65
2019-11-30 01:00:00 19.8 9 Sudeste 15 Sudeste 0 -- -- 53
2019-11-30 00:00:00 19 8 Sudeste 15 Sudeste 0 -- -- 69
2019-11-29 23:00:00 19.3 10 Sudeste 15 Sudeste 0 -- -- 78
2019-11-29 22:00:00 18.9 6 Sudeste 14 Sudeste 0 -- -- 84
2019-11-29 21:00:00 19.2 10 Sudeste 14 Sudeste 0 -- -- 82
2019-11-29 20:00:00 19.1 5 Sudeste 9 Sudeste 0 -- -- 89
2019-11-29 19:00:00 19.7 3 Sudeste 15 Este 0 -- -- 84
2019-11-29 18:00:00 21.1 12 Este 21 Este 0 -- -- 72
2019-11-29 17:00:00 22.5 15 Este 27 Este 0 -- -- 73
2019-11-29 16:00:00 22.6 20 Este 28 Este 0 -- -- 73
2019-11-29 15:00:00 22.8 20 Este 30 Este 0 -- -- 74
2019-11-29 14:00:00 22.8 18 Este 32 Este 0 -- -- 73
2019-11-29 13:00:00 22.9 17 Este 27 Este 0 -- -- 71
2019-11-29 12:00:00 22.5 17 Este 27 Este 0 -- -- 77
2019-11-29 11:00:00 22.2 13 Este 25 Este 0 -- -- 79
2019-11-29 10:00:00 21.3 16 Este 24 Este 0 -- -- 81
2019-11-29 09:00:00 20.1 13 Sudeste 23 Sudeste 0 -- -- 85
2019-11-29 08:00:00 18.1 13 Sudeste 19 Sur 0 -- -- 86
2019-11-29 07:00:00 18.1 10 Sudeste 19 Sur 0 -- -- 86
2019-11-29 06:00:00 18.1 12 Sudeste 17 Sudeste 0 -- -- 85
2019-11-29 05:00:00 18.3 11 Sudeste 22 Sudeste 0 -- -- 83
2019-11-29 04:00:00 18.3 12 Sur 17 Sudeste 0 -- -- 87
2019-11-29 03:00:00 18.5 10 Sur 17 Sudeste 0 -- -- 86
2019-11-29 02:00:00 18.7 10 Sudeste 14 Sudeste 0 -- -- 84
2019-11-29 01:00:00 18.8 8 Sudeste 12 Sur 0 -- -- 86
2019-11-29 00:00:00 18.5 8 Sudeste 13 Sudeste 0 -- -- 79
2019-11-28 23:00:00 18.9 8 Sudeste 14 Sur 0 -- -- 85
2019-11-28 22:00:00 18.8 9 Sur 14 Sur 0 -- -- 86
2019-11-28 21:00:00 19.5 6 Este 10 Nordeste 0 -- -- 88
2019-11-28 20:00:00 19.6 6 Este 12 Este 0 -- -- 87
2019-11-28 19:00:00 19.6 6 Este 14 Este 0 -- -- 86
2019-11-28 18:00:00 19.7 9 Nordeste 18 Nordeste 0 -- -- 84
2019-11-28 17:00:00 20 10 Este 18 Nordeste 0 -- -- 83
2019-11-28 16:00:00 20.3 9 Nordeste 18 Nordeste 0 -- -- 80
2019-11-28 15:00:00 20.6 11 Nordeste 18 Nordeste 0 -- -- 79
2019-11-28 14:00:00 21 11 Nordeste 19 Nordeste 0 -- -- 77
2019-11-28 13:00:00 21.4 11 Nordeste 20 Nordeste 0 -- -- 76
2019-11-28 12:00:00 21.6 11 Nordeste 20 Nordeste 0 -- -- 72
2019-11-28 11:00:00 20.7 11 Nordeste 18 Nordeste 0 -- -- 75
2019-11-28 10:00:00 20.6 9 Este 15 Nordeste 0 -- -- 73
2019-11-28 09:00:00 19.1 7 Sudeste 12 Sur 0 -- -- 77
2019-11-28 08:00:00 18.5 6 Sudeste 13 Este 0 -- -- 79
2019-11-28 07:00:00 18.7 6 Sudeste 13 Sudeste 0 -- -- 79
2019-11-28 06:00:00 18.8 6 Este 12 Este 0 -- -- 79
2019-11-28 05:00:00 18.7 6 Sudeste 12 Este 0 -- -- 79
2019-11-28 04:00:00 19 6 Este 13 Nordeste 0 -- -- 79
2019-11-28 03:00:00 19.1 6 Este 12 Este 0 -- -- 79
2019-11-28 02:00:00 19.1 5 Nordeste 13 Este 0 -- -- 80
2019-11-28 01:00:00 19.2 6 Nordeste 14 Nordeste 0 -- -- 81
2019-11-28 00:00:00 19.2 6 Nordeste 13 Nordeste 0 -- -- 81
2019-11-27 23:00:00 19.3 4 Nordeste 14 Norte 0 -- -- 80
2019-11-27 22:00:00 19.3 8 Nordeste 14 Nordeste 0 -- -- 81
2019-11-27 21:00:00 19.3 8 Nordeste 15 Nordeste 0 -- -- 80
2019-11-27 20:00:00 19.3 5 Norte 14 Nordeste 0 -- -- 79
2019-11-27 19:00:00 19.4 10 Nordeste 18 Nordeste 0 -- -- 79
2019-11-27 18:00:00 19.6 4 Nordeste 12 Nordeste 0 -- -- 77
2019-11-27 17:00:00 20.1 5 Nordeste 14 Nordeste 0 -- -- 74
2019-11-27 16:00:00 21 8 Nordeste 17 Nordeste 0 -- -- 71
2019-11-27 15:00:00 21.4 7 Nordeste 17 Nordeste 0 -- -- 72
2019-11-27 14:00:00 21.2 9 Nordeste 16 Nordeste 0 -- -- 72
2019-11-27 13:00:00 21.1 9 Nordeste 19 Nordeste 0 -- -- 71
2019-11-27 05:00:00 -- -- -- -- -- -- -- -- --
2019-11-27 04:00:00 19.2 5 Nordeste 15 Norte 0 -- -- 80
2019-11-27 03:00:00 19.3 5 Nordeste 13 Norte 0 -- -- 77
2019-11-27 02:00:00 19.2 5 Nordeste 12 Nordeste 0 -- -- 79
2019-11-27 01:00:00 19.3 5 Nordeste 15 Nordeste 0 -- -- 80
2019-11-27 00:00:00 19.4 7 Nordeste 14 Este 0 -- -- 80
2019-11-26 23:00:00 19.4 6 Nordeste 13 Nordeste 0 -- -- 80
2019-11-26 22:00:00 19.5 7 Nordeste 15 Nordeste 0 -- -- 78
2019-11-26 21:00:00 19.4 6 Nordeste 15 Norte 0 -- -- 79
2019-11-26 20:00:00 19.4 4 Nordeste 14 Nordeste 0 -- -- 79
2019-11-26 19:00:00 19.5 6 Nordeste 16 Nordeste 0 -- -- 77
2019-11-26 18:00:00 19.8 8 Norte 17 Norte 0 -- -- 78
2019-11-26 17:00:00 20.2 8 Norte 14 Norte 0 -- -- 76
2019-11-26 16:00:00 20.8 8 Norte 17 Norte 0 -- -- 74
2019-11-26 15:00:00 21 9 Norte 16 Norte 0 -- -- 72
2019-11-26 14:00:00 21.8 8 Norte 15 Nordeste 0 -- -- 69
2019-11-26 13:00:00 21.7 9 Nordeste 16 Nordeste 0 -- -- 70
2019-11-26 12:00:00 20.7 6 Nordeste 15 Nordeste 0 -- -- 72
2019-11-26 11:00:00 20.5 9 Nordeste 15 Nordeste 0 -- -- 73
2019-11-26 10:00:00 20.1 9 Nordeste 16 Nordeste 0 -- -- 74
2019-11-26 09:00:00 19.9 7 Este 13 Este 0 -- -- 75
2019-11-26 08:00:00 18.4 7 Sudeste 13 Sudeste 0 -- -- 78
2019-11-26 07:00:00 19 8 Este 14 Este 0 -- -- 76
2019-11-26 06:00:00 19 7 Nordeste 14 Nordeste 0 -- -- 77
2019-11-26 05:00:00 19 8 Este 14 Este 0 -- -- 79
2019-11-26 04:00:00 19 8 Este 15 Nordeste 0 -- -- 77
2019-11-26 03:00:00 19.2 8 Nordeste 15 Nordeste 0 -- -- 76
2019-11-26 02:00:00 19.2 7 Nordeste 16 Nordeste 0 -- -- 77
2019-11-26 01:00:00 19.2 8 Nordeste 15 Nordeste 0 -- -- 75
2019-11-26 00:00:00 19.4 6 Nordeste 14 Sudeste 0 -- -- 78
2019-11-25 23:00:00 19.4 5 Nordeste 13 Este 0 -- -- 77
2019-11-25 22:00:00 19.4 6 Nordeste 17 Nordeste 0 -- -- 77
2019-11-25 21:00:00 19.5 6 Nordeste 13 Nordeste 0 -- -- 77
2019-11-25 20:00:00 19.5 7 Nordeste 18 Nordeste 0 -- -- 76
2019-11-25 19:00:00 19.5 7 Nordeste 15 Nordeste 0 -- -- 77
2019-11-25 18:00:00 19.5 6 Nordeste 15 Norte 0 -- -- 74
2019-11-25 17:00:00 20 8 Nordeste 17 Norte 0 -- -- 73
2019-11-25 16:00:00 20.3 7 Nordeste 13 Norte 0 -- -- 72
2019-11-25 15:00:00 21.1 8 Nordeste 16 Nordeste 0 -- -- 68
2019-11-25 14:00:00 20.7 9 Nordeste 19 Nordeste 0 -- -- 71
2019-11-25 13:00:00 21.3 8 Nordeste 18 Nordeste 0 -- -- 67
2019-11-25 12:00:00 21.7 9 Nordeste 18 Nordeste 0 -- -- 67
2019-11-25 11:00:00 20.4 9 Nordeste 20 Nordeste 0 -- -- 72
2019-11-25 10:00:00 20.6 10 Nordeste 21 Nordeste 0 -- -- 70
2019-11-25 09:00:00 19 7 Sudeste 11 Este 0 -- -- 73
2019-11-25 08:00:00 18.5 4 Sur 8 Sur 0 -- -- 74
2019-11-25 07:00:00 17.9 3 Sudeste 8 Nordeste 0 -- -- 74
2019-11-25 06:00:00 18.7 6 Nordeste 15 Nordeste 0 -- -- 72
2019-11-25 05:00:00 18 4 Sudeste 12 Norte 0 -- -- 73
2019-11-25 04:00:00 18.4 5 Este 11 Nordeste 0 -- -- 72
2019-11-25 03:00:00 18.3 3 Sudeste 17 Este 0 -- -- 69
2019-11-25 02:00:00 19.2 10 Nordeste 20 Nordeste 0 -- -- 67
2019-11-25 01:00:00 19.3 7 Nordeste 21 Este 0 -- -- 66
2019-11-25 00:00:00 19.3 5 Nordeste 15 Norte 0 -- -- 66
2019-11-24 23:00:00 19.4 10 Nordeste 21 Nordeste 0 -- -- 68
2019-11-24 22:00:00 19.6 8 Nordeste 17 Este 0 -- -- 71
2019-11-24 21:00:00 19.6 7 Nordeste 12 Norte 0 -- -- 70
2019-11-24 20:00:00 19.2 5 Nordeste 16 Nordeste 0 -- -- 68
2019-11-24 19:00:00 19.3 5 Norte 14 Nordeste 0 -- -- 77
2019-11-24 18:00:00 19.7 5 Norte 10 Norte 0 -- -- 76
2019-11-24 17:00:00 20.6 4 Norte 13 Nordeste 0 -- -- 72
2019-11-24 16:00:00 21.1 7 Norte 17 Norte 0 -- -- 72
2019-11-24 15:00:00 21.3 6 Nordeste 17 Norte 0 -- -- 74
2019-11-24 14:00:00 22.1 7 Norte 15 Norte 0 -- -- 72
2019-11-24 13:00:00 22.2 7 Norte 17 Noroeste 0 -- -- 68
2019-11-24 12:00:00 21.8 9 Norte 22 Norte 0 -- -- 74
2019-11-24 11:00:00 20.7 5 Noroeste 12 Noroeste 0 -- -- 82
2019-11-24 10:00:00 20 5 Norte 12 Norte 0 -- -- 84
2019-11-24 09:00:00 19.3 5 Nordeste 14 Norte 0 -- -- 85
2019-11-24 08:00:00 18.5 0 Calma 10 Nordeste 0 -- -- 90
2019-11-24 07:00:00 18.6 4 Norte 19 Norte 0.2 -- -- 92
2019-11-24 06:00:00 18.6 4 Oeste 10 Sudoeste 0 -- -- 89
2019-11-24 05:00:00 18.6 5 Sudoeste 8 Sudoeste 0 -- -- 89
2019-11-24 04:00:00 18.5 3 Oeste 8 Norte 0 -- -- 89
2019-11-24 03:00:00 18.8 3 Noroeste 12 Nordeste 0 -- -- 88
2019-11-24 02:00:00 19.6 6 Norte 17 Noroeste 0.2 -- -- 87
2019-11-24 01:00:00 19.2 5 Noroeste 12 Oeste 0 -- -- 88
2019-11-24 00:00:00 18.8 6 Oeste 12 Noroeste 0 -- -- 89
2019-11-23 23:00:00 19.3 3 Noroeste 11 Noroeste 0 -- -- 87
2019-11-23 22:00:00 18.9 7 Oeste 13 Oeste 0 -- -- 89
2019-11-23 21:00:00 18.6 6 Sudoeste 12 Sudoeste 0 -- -- 90
2019-11-23 20:00:00 19 5 Oeste 10 Sudoeste 0 -- -- 90
2019-11-23 19:00:00 19.9 3 Noroeste 13 Noroeste 0 -- -- 89
2019-11-23 18:00:00 20.5 5 Norte 18 Norte 0 -- -- 88
2019-11-23 17:00:00 20.6 9 Oeste 17 Noroeste 0 -- -- 90
2019-11-23 16:00:00 20.4 11 Noroeste 24 Noroeste 0.2 -- -- 92
2019-11-23 15:00:00 22.3 14 Oeste 26 Oeste 0 -- -- 77
2019-11-23 14:00:00 22.2 14 Noroeste 23 Oeste 0 -- -- 81
2019-11-23 13:00:00 22.2 15 Noroeste 28 Noroeste 0 -- -- 82
2019-11-23 12:00:00 22.7 14 Oeste 26 Noroeste 0 -- -- 76
2019-11-23 11:00:00 22 14 Oeste 26 Oeste 0 -- -- 78
2019-11-23 10:00:00 21.7 13 Oeste 23 Oeste 0 -- -- 87
2019-11-23 09:00:00 20.6 12 Oeste 22 Oeste 0 -- -- 92
2019-11-23 08:00:00 19.6 12 Oeste 21 Oeste 0.4 -- -- 92
2019-11-23 07:00:00 20.1 13 Noroeste 23 Oeste 0.4 -- -- 91
2019-11-23 06:00:00 20 9 Oeste 24 Oeste 0.2 -- -- 89
2019-11-23 05:00:00 20.7 12 Oeste 22 Oeste 0 -- -- 81
2019-11-23 04:00:00 20.5 11 Oeste 23 Sudoeste 0 -- -- 81
2019-11-23 03:00:00 20 6 Oeste 15 Oeste 0 -- -- 82
2019-11-23 02:00:00 19.9 9 Sudoeste 18 Oeste 0 -- -- 82
2019-11-23 01:00:00 20.4 6 Noroeste 21 Noroeste 0 -- -- 80
2019-11-23 00:00:00 19.1 8 Oeste 14 Sudoeste 0 -- -- 86
2019-11-22 23:00:00 18.7 9 Sudoeste 16 Sudoeste 0 -- -- 88
2019-11-22 22:00:00 18.6 6 Sudoeste 10 Sudoeste 0 -- -- 86
2019-11-22 21:00:00 18.8 6 Sudoeste 9 Sudoeste 0 -- -- 83
2019-11-22 20:00:00 18.8 6 Sudoeste 10 Oeste 0 -- -- 81
2019-11-22 19:00:00 19.6 5 Oeste 13 Sudoeste 0 -- -- 76
2019-11-22 18:00:00 20.4 7 Oeste 14 Oeste 0 -- -- 77
2019-11-22 17:00:00 21.6 8 Noroeste 15 Noroeste 0 -- -- 73
2019-11-22 16:00:00 22.2 8 Noroeste 17 Noroeste 0 -- -- 72
2019-11-22 15:00:00 22.7 11 Noroeste 22 Noroeste 0 -- -- 70
2019-11-22 14:00:00 22.1 11 Noroeste 21 Norte 0 -- -- 70
2019-11-22 13:00:00 22.3 10 Noroeste 21 Noroeste 0 -- -- 69
2019-11-22 12:00:00 21.8 9 Noroeste 20 Oeste 0 -- -- 74
2019-11-22 11:00:00 20.7 8 Noroeste 13 Noroeste 0 -- -- 83
2019-11-22 10:00:00 20 8 Noroeste 14 Noroeste 0 -- -- 90
2019-11-22 09:00:00 19.1 12 Noroeste 21 Oeste 0.2 -- -- 93
2019-11-22 08:00:00 19 10 Noroeste 21 Noroeste 0 -- -- 94
2019-11-22 07:00:00 19.1 10 Noroeste 24 Noroeste 0 -- -- 93
2019-11-22 06:00:00 18.9 8 Oeste 14 Oeste 0 -- -- 92
2019-11-22 05:00:00 18 8 Oeste 12 Sudoeste 0 -- -- 89
2019-11-22 04:00:00 16.1 0 Calma 5 Oeste 0 -- -- 90
2019-11-22 03:00:00 15.9 3 Sudeste 6 Sudeste 0 -- -- 88
2019-11-22 02:00:00 17.1 2 Sudoeste 8 Sur 0 -- -- 85
2019-11-22 01:00:00 16.9 4 Sur 7 Sur 0 -- -- 89
2019-11-22 00:00:00 16.2 0 Calma 3 Sudeste 0 -- -- 88
2019-11-21 23:00:00 17.1 2 Sudeste 6 Sur 0 -- -- 87
2019-11-21 22:00:00 17.9 5 Sur 9 Sur 0 -- -- 85
2019-11-21 21:00:00 17.8 3 Sudeste 8 Sur 0 -- -- 83
2019-11-21 20:00:00 18.6 6 Sur 11 Sur 0 -- -- 81
2019-11-21 19:00:00 18.6 6 Sudeste 9 Sudeste 0 -- -- 81
2019-11-21 18:00:00 19.9 7 Este 13 Este 0 -- -- 78
2019-11-21 17:00:00 20.9 7 Sudeste 10 Sudeste 0 -- -- 74
2019-11-21 16:00:00 21.3 6 Nordeste 10 Norte 0 -- -- 72
2019-11-21 15:00:00 20.9 5 Nordeste 10 Nordeste 0 -- -- 74
2019-11-21 14:00:00 21.2 4 Norte 10 Norte 0 -- -- 73
2019-11-21 13:00:00 21 5 Norte 9 Norte 0 -- -- 75
2019-11-21 12:00:00 20.9 5 Norte 8 Norte 0 -- -- 74
2019-11-21 11:00:00 20.6 4 Norte 9 Noroeste 0 -- -- 75
2019-11-21 10:00:00 20.6 4 Norte 7 Norte 0 -- -- 77
2019-11-21 09:00:00 19 0 Calma 5 Oeste 0 -- -- 84
2019-11-21 08:00:00 18.1 2 Sudoeste 5 Sur 0 -- -- 86
2019-11-21 07:00:00 -- -- -- -- -- -- -- -- --
2019-11-21 06:00:00 -- -- -- -- -- -- -- -- --
2019-11-21 05:00:00 -- -- -- -- -- -- -- -- --
2019-11-21 04:00:00 -- -- -- -- -- -- -- -- --
2019-11-21 03:00:00 -- -- -- -- -- -- -- -- --
2019-11-21 02:00:00 -- -- -- -- -- -- -- -- --
2019-11-21 01:00:00 -- -- -- -- -- -- -- -- --
2019-11-21 00:00:00 -- -- -- -- -- -- -- -- --
2019-11-20 23:00:00 -- -- -- -- -- -- -- -- --
2019-11-20 22:00:00 -- -- -- -- -- -- -- -- --
2019-11-20 21:00:00 -- -- -- -- -- -- -- -- --
2019-11-20 20:00:00 -- -- -- -- -- -- -- -- --
2019-11-20 19:00:00 20 5 Oeste 13 Oeste 0 -- -- 76
2019-11-20 18:00:00 20.3 8 Oeste 20 Noroeste 0 -- -- 76
2019-11-20 17:00:00 20.9 12 Noroeste 28 Oeste 0 -- -- 75
2019-11-20 16:00:00 22.2 12 Noroeste 21 Noroeste 0 -- -- 71
2019-11-20 15:00:00 22.6 12 Noroeste 22 Noroeste 0 -- -- 69
2019-11-20 14:00:00 23.1 10 Noroeste 19 Noroeste 0 -- -- 68
2019-11-20 13:00:00 21.9 6 Norte 12 Norte 0 -- -- 63
2019-11-20 12:00:00 21.5 5 Norte 10 Norte 0 -- -- 68
2019-11-20 11:00:00 21.5 5 Norte 9 Nordeste 0 -- -- 64
2019-11-20 10:00:00 21 6 Nordeste 10 Nordeste 0 -- -- 62
2019-11-20 09:00:00 20.3 2 Este 11 Sudoeste 0 -- -- 62
2019-11-20 08:00:00 17.5 8 Sudoeste 15 Sudoeste 0 -- -- 77
2019-11-20 07:00:00 17.3 10 Sudoeste 16 Sudoeste 0 -- -- 76
2019-11-20 06:00:00 17.3 9 Sudoeste 17 Sudoeste 0 -- -- 73
2019-11-20 05:00:00 16.9 9 Sudoeste 14 Sudoeste 0 -- -- 74
2019-11-20 04:00:00 17.1 8 Sudoeste 16 Sudoeste 0 -- -- 76
2019-11-20 03:00:00 17.3 11 Sudoeste 15 Sudoeste 0 -- -- 79
2019-11-20 02:00:00 17.1 9 Sudoeste 13 Sudoeste 0 -- -- 80
2019-11-20 01:00:00 17.3 9 Sudoeste 16 Sudoeste 0 -- -- 81
2019-11-20 00:00:00 17.7 10 Sudoeste 17 Sudoeste 0 -- -- 80
2019-11-19 23:00:00 18 10 Sudoeste 17 Sudoeste 0 -- -- 81
2019-11-19 22:00:00 18.1 8 Sudoeste 13 Oeste 0 -- -- 83
2019-11-19 21:00:00 18.1 5 Oeste 14 Noroeste 0 -- -- 83
2019-11-19 20:00:00 18.8 7 Noroeste 15 Noroeste 0 -- -- 81
2019-11-19 19:00:00 18.9 9 Noroeste 14 Noroeste 0 -- -- 80
2019-11-19 18:00:00 19.1 5 Noroeste 12 Sudoeste 0 -- -- 84
2019-11-19 17:00:00 19.1 7 Oeste 15 Noroeste 0.2 -- -- 86
2019-11-19 16:00:00 20.5 8 Noroeste 17 Noroeste 0 -- -- 74
2019-11-19 15:00:00 21.4 7 Noroeste 16 Noroeste 0 -- -- 70
2019-11-19 14:00:00 20 8 Noroeste 17 Noroeste 0 -- -- 82
2019-11-19 13:00:00 18.6 5 Noroeste 26 Norte 0.4 -- -- 89
2019-11-19 12:00:00 18.7 17 Norte 31 Norte 0 -- -- 88
2019-11-19 11:00:00 20.2 13 Noroeste 23 Noroeste 0 -- -- 76
2019-11-19 10:00:00 19.5 9 Noroeste 18 Oeste 0 -- -- 83
2019-11-19 09:00:00 19 8 Oeste 15 Sudoeste 0 -- -- 81
2019-11-19 08:00:00 17.9 10 Sudoeste 18 Sudoeste 0 -- -- 80
2019-11-19 07:00:00 17.3 10 Sudoeste 14 Oeste 0 -- -- 81
2019-11-19 06:00:00 17.1 9 Sudoeste 15 Sudoeste 0 -- -- 82
2019-11-19 05:00:00 17.1 11 Sudoeste 15 Sudoeste 0 -- -- 82
2019-11-19 04:00:00 16.8 9 Sudoeste 14 Sudoeste 0 -- -- 81
2019-11-19 03:00:00 16.6 7 Oeste 13 Sudoeste 0 -- -- 83
2019-11-19 02:00:00 16.9 9 Sudoeste 13 Sudoeste 0 -- -- 84
2019-11-19 01:00:00 17.2 9 Sudoeste 13 Sudoeste 0.2 -- -- 85
2019-11-19 00:00:00 17.5 6 Sudoeste 9 Sudoeste 0 -- -- 80
2019-11-18 23:00:00 16.8 4 Sudoeste 8 Sudoeste 0 -- -- 82
2019-11-18 22:00:00 17.5 3 Oeste 9 Nordeste 0 -- -- 79
2019-11-18 21:00:00 18.3 3 Norte 10 Nordeste 0 -- -- 77
2019-11-18 20:00:00 18.7 5 Sudeste 9 Sudoeste 0 -- -- 76
2019-11-18 19:00:00 18.3 3 Sudeste 5 Sudeste 0 -- -- 76
2019-11-18 18:00:00 18.9 3 Este 10 Nordeste 0 -- -- 71
2019-11-18 17:00:00 20.1 7 Nordeste 12 Nordeste 0 -- -- 68
2019-11-18 16:00:00 20.3 8 Nordeste 14 Nordeste 0 -- -- 67
2019-11-18 15:00:00 20.8 8 Este 16 Nordeste 0 -- -- 65
2019-11-18 14:00:00 21.1 10 Nordeste 21 Nordeste 0 -- -- 62
2019-11-18 13:00:00 20.7 8 Nordeste 16 Nordeste 0 -- -- 64
2019-11-18 12:00:00 20.9 9 Nordeste 16 Nordeste 0 -- -- 62
2019-11-18 11:00:00 20.5 9 Nordeste 16 Nordeste 0 -- -- 65
2019-11-18 10:00:00 19.6 10 Este 16 Este 0 -- -- 70
2019-11-18 09:00:00 18.4 8 Sudeste 13 Sudeste 0 -- -- 73
2019-11-18 08:00:00 17.5 5 Sudeste 15 Este 0 -- -- 75
2019-11-18 07:00:00 18.1 9 Este 17 Nordeste 0 -- -- 75
2019-11-18 06:00:00 18.1 7 Nordeste 18 Nordeste 0 -- -- 73
2019-11-18 05:00:00 18.2 8 Nordeste 16 Nordeste 0 -- -- 70
2019-11-18 04:00:00 17.8 6 Nordeste 15 Este 0 -- -- 73
2019-11-18 03:00:00 16.8 5 Este 14 Este 0 -- -- 75
2019-11-18 02:00:00 17.1 5 Este 14 Este 0 -- -- 74
2019-11-18 01:00:00 17.7 8 Este 22 Nordeste 0 -- -- 73
2019-11-18 00:00:00 18 10 Nordeste 21 Nordeste 0 -- -- 69
2019-11-17 23:00:00 18.1 10 Nordeste 23 Nordeste 0 -- -- 71
2019-11-17 22:00:00 18.3 11 Nordeste 26 Norte 0 -- -- 71
2019-11-17 21:00:00 18.3 10 Nordeste 25 Nordeste 0 -- -- 74
2019-11-17 20:00:00 18.2 10 Este 22 Nordeste 0 -- -- 73
2019-11-17 19:00:00 18.2 12 Nordeste 23 Nordeste 0 -- -- 73
2019-11-17 18:00:00 17.7 2 Sudeste 19 Nordeste 0 -- -- 75
2019-11-17 17:00:00 17.7 12 Nordeste 27 Nordeste 0 -- -- 77
2019-11-17 16:00:00 19.4 9 Nordeste 23 Nordeste 0 -- -- 69
2019-11-17 15:00:00 19.6 11 Nordeste 23 Este 0 -- -- 67
2019-11-17 14:00:00 18.6 9 Este 27 Este 0.2 -- -- 75
2019-11-17 13:00:00 18.9 9 Nordeste 27 Este 0 -- -- 67
2019-11-17 12:00:00 19.7 9 Nordeste 27 Nordeste 0 -- -- 61
2019-11-17 11:00:00 19 18 Nordeste 30 Nordeste 0 -- -- 65
2019-11-17 10:00:00 17.8 8 Sudeste 31 Este 0 -- -- 76
2019-11-17 09:00:00 18.2 13 Nordeste 28 Nordeste 0 -- -- 75
2019-11-17 08:00:00 17.8 12 Nordeste 30 Nordeste 0 -- -- 73
2019-11-17 07:00:00 17.7 9 Este 30 Nordeste 0 -- -- 70
2019-11-17 06:00:00 18 8 Nordeste 23 Este 0 -- -- 68
2019-11-17 05:00:00 18.4 10 Nordeste 26 Nordeste 0 -- -- 63
2019-11-17 04:00:00 18.5 10 Nordeste 24 Nordeste 0 -- -- 66
2019-11-17 03:00:00 18.4 12 Nordeste 26 Nordeste 0 -- -- 73
2019-11-17 02:00:00 18 10 Nordeste 25 Nordeste 0 -- -- 75
2019-11-17 01:00:00 18.4 9 Nordeste 22 Nordeste 0 -- -- 73
2019-11-17 00:00:00 18.1 12 Nordeste 28 Norte 0 -- -- 74
2019-11-16 23:00:00 18.3 10 Nordeste 27 Nordeste 0 -- -- 76
2019-11-16 22:00:00 18.6 14 Nordeste 26 Nordeste 0 -- -- 77
2019-11-16 21:00:00 18.7 13 Nordeste 28 Nordeste 0 -- -- 74
2019-11-16 20:00:00 18.6 14 Nordeste 26 Norte 0 -- -- 71
2019-11-16 19:00:00 18.6 13 Nordeste 32 Norte 0 -- -- 72
2019-11-16 18:00:00 18.9 9 Nordeste 31 Nordeste 0 -- -- 64
2019-11-16 17:00:00 19.3 15 Nordeste 32 Nordeste 0 -- -- 69
2019-11-16 16:00:00 19.8 16 Norte 28 Norte 0 -- -- 62
2019-11-16 15:00:00 21.4 13 Norte 28 Norte 0 -- -- 56
2019-11-16 14:00:00 21.7 15 Norte 26 Norte 0 -- -- 55
2019-11-16 13:00:00 21 16 Norte 30 Norte 0 -- -- 52
2019-11-16 12:00:00 20.9 17 Norte 36 Norte 0 -- -- 55
2019-11-16 11:00:00 20.1 19 Norte 33 Norte 0 -- -- 59
2019-11-16 10:00:00 18.9 22 Norte 41 Nordeste 0 -- -- 69
2019-11-16 09:00:00 18.9 9 Norte 37 Norte 0 -- -- 70
2019-11-16 08:00:00 18.4 15 Norte 29 Norte 0 -- -- 70
2019-11-16 07:00:00 17.5 10 Noroeste 43 Norte 0 -- -- 72
2019-11-16 06:00:00 18.2 16 Norte 31 Norte 0 -- -- 71
2019-11-16 05:00:00 18.1 11 Norte 29 Nordeste 0 -- -- 73
2019-11-16 04:00:00 18 15 Norte 34 Norte 0 -- -- 76
2019-11-16 03:00:00 17.2 9 Noroeste 26 Norte 0 -- -- 81
2019-11-16 02:00:00 17.4 9 Norte 38 Norte 0 -- -- 72
2019-11-16 01:00:00 17.2 3 Nordeste 30 Norte 0 -- -- 80
2019-11-16 00:00:00 18.1 12 Norte 25 Norte 0 -- -- 73
2019-11-15 23:00:00 17.8 8 Nordeste 36 Norte 0 -- -- 74
2019-11-15 22:00:00 18.6 15 Norte 30 Norte 0 -- -- 73
2019-11-15 21:00:00 18.6 14 Norte 39 Norte 0 -- -- 70
2019-11-15 20:00:00 18.7 14 Norte 31 Norte 0 -- -- 75
2019-11-15 19:00:00 18.8 16 Norte 28 Nordeste 0 -- -- 71
2019-11-15 18:00:00 18.9 10 Norte 27 Nordeste 0 -- -- 67
2019-11-15 17:00:00 19.2 14 Norte 27 Norte 0 -- -- 69
2019-11-15 16:00:00 19.6 16 Norte 33 Nordeste 0 -- -- 62
2019-11-15 15:00:00 20.1 16 Nordeste 31 Norte 0 -- -- 69
2019-11-15 14:00:00 20.4 18 Norte 36 Norte 0 -- -- 64
2019-11-15 13:00:00 20.3 13 Norte 26 Nordeste 0 -- -- 66
2019-11-15 12:00:00 19.7 15 Nordeste 30 Norte 0 -- -- 79
2019-11-15 11:00:00 18.6 14 Nordeste 32 Nordeste 0 -- -- 82
2019-11-15 10:00:00 19.2 15 Nordeste 30 Norte 0 -- -- 82
2019-11-15 09:00:00 18.8 11 Norte 35 Norte 0 -- -- 83
2019-11-15 08:00:00 18.3 13 Nordeste 32 Norte 0.4 -- -- 89
2019-11-15 07:00:00 18.7 11 Norte 29 Norte 0 -- -- 88
2019-11-15 06:00:00 19.2 8 Norte 28 Noroeste 0 -- -- 78
2019-11-15 05:00:00 19 3 Norte 9 Norte 0 -- -- 73
2019-11-15 04:00:00 19.2 5 Nordeste 21 Norte 0 -- -- 70
2019-11-15 03:00:00 19.5 12 Nordeste 28 Este 0 -- -- 70
2019-11-15 02:00:00 18.9 9 Nordeste 32 Norte 0 -- -- 77
2019-11-15 01:00:00 19.8 13 Nordeste 32 Nordeste 0 -- -- 66
2019-11-15 00:00:00 19 8 Este 33 Nordeste 0 -- -- 79
2019-11-14 23:00:00 19.5 7 Norte 31 Norte 0 -- -- 74
2019-11-14 22:00:00 20 15 Nordeste 26 Nordeste 0 -- -- 76
2019-11-14 21:00:00 19.7 14 Nordeste 28 Nordeste 0 -- -- 77
2019-11-14 20:00:00 20 10 Nordeste 24 Nordeste 0 -- -- 73
2019-11-14 19:00:00 20.1 12 Nordeste 23 Nordeste 0 -- -- 75
2019-11-14 18:00:00 20.3 9 Nordeste 15 Este 0 -- -- 77
2019-11-14 17:00:00 20.7 9 Nordeste 19 Nordeste 0 -- -- 70
2019-11-14 16:00:00 21.1 10 Nordeste 23 Nordeste 0 -- -- 71
2019-11-14 15:00:00 21.1 12 Nordeste 25 Nordeste 0 -- -- 74
2019-11-14 14:00:00 21.3 9 Nordeste 22 Nordeste 0 -- -- 72
2019-11-14 13:00:00 21 9 Norte 21 Nordeste 0 -- -- 77
2019-11-14 12:00:00 21.6 10 Nordeste 24 Nordeste 0 -- -- 76
2019-11-14 11:00:00 22.3 7 Nordeste 17 Nordeste 0 -- -- 68
2019-11-14 10:00:00 21.4 9 Nordeste 17 Nordeste 0 -- -- 71
2019-11-14 09:00:00 20.7 9 Nordeste 18 Nordeste 0 -- -- 74
2019-11-14 08:00:00 20 9 Nordeste 18 Nordeste 0 -- -- 77
2019-11-14 07:00:00 19.7 6 Nordeste 20 Nordeste 0 -- -- 75
2019-11-14 06:00:00 19.5 9 Nordeste 17 Nordeste 0 -- -- 71
2019-11-14 05:00:00 19.6 10 Nordeste 25 Nordeste 0 -- -- 71
2019-11-14 04:00:00 19.7 12 Nordeste 21 Nordeste 0 -- -- 72
2019-11-14 03:00:00 19.7 8 Norte 21 Nordeste 0 -- -- 69
2019-11-14 02:00:00 19.6 8 Nordeste 22 Nordeste 0 -- -- 69
2019-11-14 01:00:00 19.6 8 Nordeste 27 Nordeste 0 -- -- 72
2019-11-14 00:00:00 19.8 9 Nordeste 19 Nordeste 0 -- -- 74
2019-11-13 23:00:00 19.6 6 Nordeste 21 Norte 0 -- -- 71
2019-11-13 22:00:00 19.7 9 Norte 28 Norte 0 -- -- 69
2019-11-13 21:00:00 19.9 10 Nordeste 21 Nordeste 0 -- -- 70
2019-11-13 20:00:00 19.8 9 Nordeste 21 Nordeste 0 -- -- 72
2019-11-13 19:00:00 19.8 15 Norte 27 Norte 0 -- -- 68
2019-11-13 18:00:00 20.2 14 Norte 26 Norte 0 -- -- 73
2019-11-13 17:00:00 20.7 11 Norte 23 Norte 0 -- -- 70
2019-11-13 16:00:00 21.3 10 Norte 23 Norte 0 -- -- 68
2019-11-13 15:00:00 22.2 9 Norte 19 Nordeste 0 -- -- 67
2019-11-13 14:00:00 21.9 11 Nordeste 20 Norte 0 -- -- 67
2019-11-13 13:00:00 22.2 11 Nordeste 22 Nordeste 0 -- -- 69
2019-11-13 12:00:00 21.9 13 Nordeste 23 Nordeste 0 -- -- 68
2019-11-13 11:00:00 22.1 10 Nordeste 22 Nordeste 0 -- -- 68
2019-11-13 10:00:00 20.9 10 Nordeste 23 Nordeste 0 -- -- 72
2019-11-13 09:00:00 20.2 12 Nordeste 25 Nordeste 0 -- -- 73
2019-11-13 08:00:00 20.1 8 Nordeste 24 Norte 0 -- -- 79
2019-11-13 07:00:00 19.7 8 Nordeste 23 Norte 0 -- -- 79
2019-11-13 06:00:00 19.7 6 Nordeste 20 Norte 0 -- -- 80
2019-11-13 05:00:00 19.5 8 Norte 16 Norte 0 -- -- 81
2019-11-13 04:00:00 19.2 6 Norte 13 Norte 0 -- -- 82
2019-11-13 03:00:00 19 4 Noroeste 14 Nordeste 0 -- -- 83
2019-11-13 02:00:00 19 4 Norte 12 Norte 0 -- -- 82
2019-11-13 01:00:00 19.2 5 Nordeste 16 Nordeste 0 -- -- 79
2019-11-13 00:00:00 19.3 7 Nordeste 14 Nordeste 0 -- -- 80
2019-11-12 23:00:00 19.4 6 Nordeste 15 Norte 0 -- -- 81
2019-11-12 22:00:00 19.4 5 Nordeste 16 Norte 0.2 -- -- 80
2019-11-12 21:00:00 19.6 5 Nordeste 18 Norte 0 -- -- 80
2019-11-12 20:00:00 19.6 6 Norte 21 Norte 0 -- -- 78
2019-11-12 19:00:00 20 9 Norte 19 Norte 0 -- -- 81
2019-11-12 18:00:00 20.4 14 Norte 23 Norte 0 -- -- 78
2019-11-12 17:00:00 20.9 7 Norte 18 Norte 0 -- -- 81
2019-11-12 16:00:00 21.1 12 Norte 20 Norte 0 -- -- 84
2019-11-12 15:00:00 21.7 9 Norte 23 Norte 0.2 -- -- 81
2019-11-12 14:00:00 21.9 8 Norte 20 Norte 0 -- -- 82
2019-11-12 13:00:00 20.7 11 Norte 26 Norte 0.2 -- -- 88
2019-11-12 12:00:00 21.7 7 Norte 20 Noroeste 0 -- -- 79
2019-11-12 11:00:00 20.9 3 Nordeste 22 Norte 0 -- -- 83
2019-11-12 10:00:00 20.1 9 Norte 25 Norte 0.8 -- -- 88
2019-11-12 09:00:00 20 6 Sudeste 21 Nordeste 0 -- -- 85
2019-11-12 08:00:00 20.4 7 Nordeste 22 Norte 0 -- -- 81
2019-11-12 07:00:00 20 12 Nordeste 27 Norte 0 -- -- 80
2019-11-12 06:00:00 20.3 15 Norte 41 Norte 0 -- -- 78
2019-11-12 05:00:00 20.3 12 Norte 26 Norte 0 -- -- 78
2019-11-12 04:00:00 20.1 8 Norte 26 Norte 0 -- -- 74
2019-11-12 03:00:00 20.1 15 Norte 30 Norte 0 -- -- 74
2019-11-12 02:00:00 20.1 19 Norte 32 Norte 0 -- -- 75
2019-11-12 01:00:00 20.2 13 Norte 35 Norte 0 -- -- 75
2019-11-12 00:00:00 20.3 14 Norte 32 Norte 0 -- -- 77